Time;durP1;ratioP1;P1;durP2;ratioP2;P2;SDS_P1;SDS_P2;PMS_P1;PMS_P2;Temp;Humidity;BMP_temperature;BMP_pressure;BME280_temperature;BME280_humidity;BME280_pressure;Samples;Min_cycle;Max_cycle;Signal;HPM_P1;HPM_P2
2021/06/14 00:01:51;;;;;;;0.20;0.00;;;24.30;48.10;;;;;;4976192;28;20621;-85
2021/06/14 00:04:17;;;;;;;0.00;0.00;;;24.30;48.20;;;;;;4974128;28;20019;-87
2021/06/14 00:06:43;;;;;;;0.17;0.00;;;24.30;48.10;;;;;;4972853;28;20039;-86
2021/06/14 00:09:10;;;;;;;0.05;0.05;;;24.30;48.20;;;;;;4973951;28;20038;-87
2021/06/14 00:11:37;;;;;;;0.10;0.00;;;24.20;48.20;;;;;;4972416;28;20043;-87
2021/06/14 00:14:04;;;;;;;0.13;0.03;;;24.20;48.30;;;;;;4972719;28;20023;-86
2021/06/14 00:16:30;;;;;;;0.30;0.10;;;24.10;48.30;;;;;;4985691;28;20034;-87
2021/06/14 00:18:56;;;;;;;0.20;0.00;;;24.10;48.40;;;;;;4979022;28;20027;-87
2021/06/14 00:21:22;;;;;;;0.25;0.00;;;24.10;48.50;;;;;;4976800;28;20387;-86
2021/06/14 00:23:48;;;;;;;0.03;0.00;;;24.00;48.50;;;;;;4976698;28;20026;-86
2021/06/14 00:26:15;;;;;;;0.10;0.00;;;23.90;48.50;;;;;;4972512;28;20038;-86
2021/06/14 00:28:41;;;;;;;0.10;0.00;;;23.90;48.60;;;;;;4993380;28;20026;-84
2021/06/14 00:31:08;;;;;;;0.38;0.00;;;23.90;48.70;;;;;;4992320;28;20038;-87
2021/06/14 00:33:35;;;;;;;2.72;0.13;;;23.80;48.70;;;;;;4973352;28;20030;-86
2021/06/14 00:36:02;;;;;;;0.03;0.00;;;23.80;48.70;;;;;;4972330;28;20376;-86
2021/06/14 00:38:28;;;;;;;0.43;0.10;;;23.70;48.70;;;;;;4972393;28;20042;-86
2021/06/14 00:40:54;;;;;;;0.10;0.00;;;23.70;48.80;;;;;;4973245;28;20034;-84
2021/06/14 00:43:20;;;;;;;0.10;0.00;;;23.70;48.80;;;;;;4972774;28;20041;-86
2021/06/14 00:45:48;;;;;;;0.17;0.03;;;23.70;48.80;;;;;;4977619;28;20042;-86
2021/06/14 00:48:14;;;;;;;0.00;0.00;;;23.70;48.90;;;;;;4968263;28;20510;-86
2021/06/14 00:50:55;;;;;;;0.20;0.00;;;23.70;48.90;;;;;;4975038;28;20042;-87
2021/06/14 00:53:25;;;;;;;0.00;0.00;;;23.70;48.90;;;;;;4959200;28;20031;-86
2021/06/14 00:55:51;;;;;;;0.00;0.00;;;23.70;48.90;;;;;;4975317;28;20407;-86
2021/06/14 00:58:18;;;;;;;3.17;0.10;;;23.70;48.90;;;;;;4977059;28;20039;-88
2021/06/14 01:00:44;;;;;;;0.10;0.00;;;23.70;49.00;;;;;;4955580;28;20504;-87
2021/06/14 01:03:10;;;;;;;0.10;0.00;;;23.60;49.00;;;;;;4953874;28;20039;-87
2021/06/14 01:05:58;;;;;;;0.00;0.00;;;23.60;49.10;;;;;;4952825;28;20050;-87
2021/06/14 01:08:25;;;;;;;0.20;0.00;;;23.50;49.30;;;;;;4970320;28;20023;-86
2021/06/14 01:10:52;;;;;;;0.00;0.00;;;23.40;49.30;;;;;;4952565;29;20036;-86
2021/06/14 01:13:21;;;;;;;0.00;0.00;;;23.40;49.40;;;;;;4984991;28;20027;-86
2021/06/14 01:15:52;;;;;;;0.28;0.08;;;23.30;49.40;;;;;;4965036;28;20035;-87
2021/06/14 01:18:22;;;;;;;0.00;0.00;;;23.30;49.50;;;;;;4984562;28;20384;-86
2021/06/14 01:21:22;;;;;;;0.08;0.00;;;23.20;49.50;;;;;;4978664;28;20369;-87
2021/06/14 01:23:54;;;;;;;0.35;0.00;;;23.20;49.70;;;;;;4972675;28;20038;-86
2021/06/14 01:26:22;;;;;;;0.85;0.05;;;23.20;49.70;;;;;;4962361;28;20034;-86
2021/06/14 01:28:53;;;;;;;0.60;0.10;;;23.10;49.70;;;;;;4964132;28;20062;-86
2021/06/14 01:31:20;;;;;;;0.50;0.03;;;23.10;49.80;;;;;;4976548;28;20035;-86
2021/06/14 01:33:47;;;;;;;2.40;0.10;;;23.10;49.80;;;;;;4988482;28;20042;-86
2021/06/14 01:36:16;;;;;;;0.30;0.00;;;23.10;49.80;;;;;;4975546;28;20033;-85
2021/06/14 01:38:43;;;;;;;0.00;0.00;;;23.10;49.80;;;;;;4975391;28;20388;-86
2021/06/14 01:41:10;;;;;;;0.10;0.00;;;23.10;49.90;;;;;;4975575;28;20026;-86
2021/06/14 01:43:38;;;;;;;0.68;0.20;;;23.10;49.90;;;;;;4956901;28;20047;-83
2021/06/14 01:46:24;;;;;;;0.40;0.20;;;23.10;49.90;;;;;;4989810;28;20039;-86
2021/06/14 01:48:51;;;;;;;0.75;0.20;;;23.10;49.90;;;;;;4975404;28;20046;-86
2021/06/14 01:51:19;;;;;;;0.13;0.00;;;23.10;49.90;;;;;;4991182;28;20039;-87
2021/06/14 01:54:02;;;;;;;0.43;0.10;;;23.10;50.00;;;;;;4974952;28;20403;-86
2021/06/14 01:56:32;;;;;;;0.13;0.05;;;23.00;50.00;;;;;;4975525;28;20022;-83
2021/06/14 01:59:00;;;;;;;0.17;0.00;;;23.00;50.00;;;;;;4976412;28;20031;-86
2021/06/14 02:01:30;;;;;;;0.20;0.00;;;23.00;50.00;;;;;;4973142;28;20039;-84
2021/06/14 02:03:57;;;;;;;0.80;0.17;;;23.00;50.10;;;;;;4969351;28;20027;-85
2021/06/14 02:06:29;;;;;;;0.00;0.00;;;23.00;50.10;;;;;;4970244;28;20022;-86
2021/06/14 02:08:57;;;;;;;0.47;0.10;;;22.90;50.20;;;;;;4970180;28;20030;-86
2021/06/14 02:11:24;;;;;;;0.25;0.03;;;22.90;50.20;;;;;;4970568;28;20047;-86
2021/06/14 02:13:50;;;;;;;0.32;0.10;;;22.90;50.30;;;;;;4973150;28;20042;-84
2021/06/14 02:16:16;;;;;;;0.50;0.00;;;22.80;50.50;;;;;;4970551;28;20105;-84
2021/06/14 02:18:42;;;;;;;0.20;0.00;;;22.60;50.60;;;;;;4970393;28;20026;-85
2021/06/14 02:21:08;;;;;;;0.20;0.00;;;22.60;50.80;;;;;;4970413;28;20030;-86
2021/06/14 02:23:35;;;;;;;0.00;0.00;;;22.50;50.80;;;;;;4971226;28;20392;-85
2021/06/14 02:26:01;;;;;;;0.45;0.10;;;22.40;50.90;;;;;;4973814;28;20042;-86
2021/06/14 02:28:27;;;;;;;0.45;0.20;;;22.40;51.00;;;;;;4971635;28;20038;-85
2021/06/14 02:30:53;;;;;;;1.08;0.20;;;22.40;51.00;;;;;;4970024;28;20046;-83
2021/06/14 02:33:19;;;;;;;0.10;0.00;;;22.40;51.00;;;;;;4971005;28;20034;-86
2021/06/14 02:35:45;;;;;;;0.30;0.03;;;22.40;51.00;;;;;;4986112;28;20380;-86
2021/06/14 02:38:11;;;;;;;0.40;0.20;;;22.30;51.00;;;;;;4960767;28;20054;-86
2021/06/14 02:40:38;;;;;;;3.90;0.35;;;22.30;51.10;;;;;;4974878;28;20042;-86
2021/06/14 02:43:07;;;;;;;1.65;0.43;;;22.30;51.10;;;;;;4974248;28;20027;-86
2021/06/14 02:45:34;;;;;;;0.40;0.08;;;22.30;51.80;;;;;;4973654;28;20515;-85
2021/06/14 02:48:01;;;;;;;0.43;0.10;;;22.30;51.20;;;;;;4974309;28;20041;-83
2021/06/14 02:50:27;;;;;;;0.77;0.10;;;22.30;51.20;;;;;;4957950;28;20034;-86
2021/06/14 02:52:53;;;;;;;0.00;0.00;;;22.30;51.30;;;;;;4974407;28;20051;-86
2021/06/14 02:55:22;;;;;;;0.30;0.00;;;22.20;51.30;;;;;;4955452;28;20046;-84
2021/06/14 02:57:52;;;;;;;0.30;0.00;;;22.20;51.30;;;;;;4970882;28;20031;-86
2021/06/14 03:00:29;;;;;;;0.68;0.17;;;22.30;51.40;;;;;;4973499;28;20027;-85
2021/06/14 03:03:01;;;;;;;0.35;0.00;;;22.20;51.30;;;;;;4958373;28;20035;-82
2021/06/14 03:05:27;;;;;;;0.55;0.10;;;22.20;51.30;;;;;;4973884;28;20472;-87
2021/06/14 03:07:56;;;;;;;0.60;0.20;;;22.20;51.40;;;;;;4974107;28;20035;-86
2021/06/14 03:10:23;;;;;;;0.08;0.00;;;22.10;51.50;;;;;;4989386;28;20033;-84
2021/06/14 03:12:53;;;;;;;0.68;0.20;;;22.10;51.50;;;;;;4990145;28;20038;-86
2021/06/14 03:15:19;;;;;;;0.28;0.10;;;22.10;51.50;;;;;;4976909;28;20027;-86
2021/06/14 03:17:45;;;;;;;0.25;0.10;;;22.10;51.60;;;;;;4988891;28;20053;-86
2021/06/14 03:20:12;;;;;;;0.80;0.10;;;22.10;51.60;;;;;;4973959;28;20033;-86
2021/06/14 03:22:39;;;;;;;0.73;0.10;;;22.10;51.60;;;;;;4994819;28;20042;-86
2021/06/14 03:25:06;;;;;;;0.00;0.00;;;22.10;51.60;;;;;;5010314;28;20030;-86
2021/06/14 03:27:32;;;;;;;0.30;0.10;;;22.00;51.70;;;;;;4994082;28;20041;-86
2021/06/14 03:29:58;;;;;;;0.10;0.00;;;22.00;51.80;;;;;;4993997;28;20026;-86
2021/06/14 03:32:24;;;;;;;0.25;0.10;;;22.00;52.40;;;;;;4972895;28;20043;-85
2021/06/14 03:34:51;;;;;;;0.17;0.00;;;21.90;51.90;;;;;;4973571;28;20027;-85
2021/06/14 03:37:17;;;;;;;0.00;0.00;;;21.90;52.00;;;;;;4973347;28;20507;-86
2021/06/14 03:39:43;;;;;;;0.10;0.00;;;21.90;52.00;;;;;;4973353;28;20030;-85
2021/06/14 03:42:09;;;;;;;0.00;0.00;;;21.80;52.00;;;;;;4957243;28;20031;-83
2021/06/14 03:44:36;;;;;;;0.20;0.00;;;21.80;52.10;;;;;;4974419;28;20034;-86
2021/06/14 03:47:02;;;;;;;0.52;0.15;;;21.70;52.20;;;;;;4988068;28;20044;-86
2021/06/14 03:49:28;;;;;;;0.05;0.05;;;21.70;52.30;;;;;;4979199;28;20054;-86
2021/06/14 03:51:54;;;;;;;0.32;0.08;;;21.60;52.50;;;;;;4957982;28;20050;-86
2021/06/14 03:54:20;;;;;;;0.20;0.10;;;21.50;52.60;;;;;;5000267;28;20679;-86
2021/06/14 03:56:46;;;;;;;0.40;0.00;;;21.50;52.70;;;;;;5009049;28;20018;-86
2021/06/14 03:59:12;;;;;;;0.25;0.00;;;21.40;52.70;;;;;;4973454;28;20482;-86
2021/06/14 04:01:38;;;;;;;0.10;0.00;;;21.40;52.80;;;;;;4978476;28;20035;-86
2021/06/14 04:06:49;;;;;;;0.73;0.10;;;21.30;52.80;;;;;;4975040;28;20042;-85
2021/06/14 04:09:15;;;;;;;0.00;0.00;;;21.30;52.80;;;;;;4972892;28;20035;-86
2021/06/14 04:11:42;;;;;;;0.30;0.15;;;21.30;52.90;;;;;;4972747;28;20519;-86
2021/06/14 04:14:08;;;;;;;0.17;0.10;;;21.30;52.80;;;;;;4972775;28;20043;-86
2021/06/14 04:16:34;;;;;;;0.10;0.00;;;21.30;52.80;;;;;;4986490;28;20043;-85
2021/06/14 04:19:00;;;;;;;1.80;0.05;;;21.30;52.90;;;;;;4978266;28;20523;-86
2021/06/14 04:21:26;;;;;;;0.30;0.05;;;21.30;52.90;;;;;;4974319;28;20042;-86
2021/06/14 04:23:52;;;;;;;1.08;0.10;;;21.20;52.90;;;;;;4959613;28;20038;-85
2021/06/14 04:26:18;;;;;;;1.00;0.22;;;21.10;53.00;;;;;;4973808;28;20027;-86
2021/06/14 04:28:44;;;;;;;0.63;0.13;;;21.10;53.10;;;;;;5016804;28;20037;-86
2021/06/14 04:31:10;;;;;;;0.40;0.10;;;21.00;53.20;;;;;;4976436;28;20492;-86
2021/06/14 04:33:37;;;;;;;0.52;0.00;;;21.10;53.20;;;;;;4972008;28;20035;-86
2021/06/14 04:36:04;;;;;;;0.15;0.00;;;21.10;53.80;;;;;;4956545;28;20380;-86
2021/06/14 04:38:31;;;;;;;0.13;0.03;;;21.10;53.20;;;;;;4956632;28;20047;-85
2021/06/14 04:40:57;;;;;;;0.63;0.28;;;21.10;53.20;;;;;;4972455;28;20022;-85
2021/06/14 04:43:23;;;;;;;1.38;0.10;;;21.10;53.20;;;;;;4972780;28;20400;-86
2021/06/14 04:45:49;;;;;;;0.50;0.10;;;21.10;53.20;;;;;;4977947;28;20042;-86
2021/06/14 04:48:15;;;;;;;0.10;0.00;;;21.10;53.20;;;;;;4983829;28;20045;-83
2021/06/14 04:50:41;;;;;;;0.43;0.10;;;21.20;53.10;;;;;;4976222;28;20041;-86
2021/06/14 04:53:07;;;;;;;0.57;0.20;;;21.30;52.90;;;;;;4973315;28;20031;-85
2021/06/14 04:55:33;;;;;;;0.25;0.00;;;21.50;52.70;;;;;;4977612;28;20465;-82
2021/06/14 04:57:59;;;;;;;0.20;0.00;;;21.60;52.50;;;;;;4976532;28;20042;-85
2021/06/14 05:00:27;;;;;;;0.35;0.10;;;21.70;52.50;;;;;;4976922;28;20046;-86
2021/06/14 05:02:53;;;;;;;0.20;0.08;;;21.80;52.40;;;;;;4971792;28;20483;-84
2021/06/14 05:05:19;;;;;;;0.30;0.10;;;22.00;52.10;;;;;;4971969;28;20030;-84
2021/06/14 05:07:45;;;;;;;0.35;0.05;;;22.40;51.80;;;;;;4956812;28;20035;-85
2021/06/14 05:10:11;;;;;;;0.28;0.10;;;22.60;51.40;;;;;;4972957;28;20031;-85
2021/06/14 05:12:38;;;;;;;0.00;0.00;;;22.90;51.00;;;;;;4972954;28;20053;-85
2021/06/14 05:15:05;;;;;;;0.00;0.00;;;23.10;50.90;;;;;;4971690;28;20019;-84
2021/06/14 05:17:31;;;;;;;0.40;0.13;;;23.10;50.80;;;;;;4969590;28;20043;-85
2021/06/14 05:19:57;;;;;;;2.13;0.20;;;23.20;50.70;;;;;;4958251;28;20050;-84
2021/06/14 05:22:23;;;;;;;0.30;0.10;;;23.30;50.70;;;;;;4977681;28;20031;-85
2021/06/14 05:24:50;;;;;;;0.00;0.00;;;23.40;50.60;;;;;;4976242;28;20050;-85
2021/06/14 05:27:16;;;;;;;0.20;0.10;;;23.50;50.60;;;;;;4977190;28;20031;-84
2021/06/14 05:29:42;;;;;;;0.20;0.00;;;23.60;50.40;;;;;;4975635;28;20038;-82
2021/06/14 05:32:08;;;;;;;0.35;0.20;;;23.70;50.40;;;;;;4953261;28;21304;-85
2021/06/14 05:34:34;;;;;;;0.57;0.10;;;23.80;50.20;;;;;;4953958;29;20038;-83
2021/06/14 05:37:00;;;;;;;0.15;0.08;;;23.90;50.10;;;;;;4952475;29;20031;-84
2021/06/14 05:39:26;;;;;;;0.10;0.00;;;24.00;49.80;;;;;;4952456;28;20047;-84
2021/06/14 05:41:52;;;;;;;0.28;0.10;;;24.20;49.70;;;;;;4952388;28;20381;-85
2021/06/14 05:44:19;;;;;;;0.45;0.10;;;24.30;49.50;;;;;;4953407;28;20024;-84
2021/06/14 05:46:45;;;;;;;2.05;0.13;;;24.40;49.40;;;;;;4994236;28;20492;-84
2021/06/14 05:49:11;;;;;;;0.20;0.10;;;24.50;49.90;;;;;;4972749;28;20030;-84
2021/06/14 05:51:38;;;;;;;0.05;0.00;;;24.60;49.10;;;;;;4971452;28;20046;-85
2021/06/14 05:54:05;;;;;;;2.83;0.10;;;24.70;48.90;;;;;;4971683;28;20023;-84
2021/06/14 05:56:31;;;;;;;0.30;0.00;;;24.80;48.90;;;;;;4971613;28;20467;-85
2021/06/14 05:58:58;;;;;;;0.32;0.00;;;24.80;48.90;;;;;;4972457;28;20038;-85
2021/06/14 06:01:24;;;;;;;0.00;0.00;;;24.80;48.90;;;;;;4971386;28;20491;-84
2021/06/14 06:03:50;;;;;;;0.20;0.00;;;24.70;48.90;;;;;;4987602;28;20034;-84
2021/06/14 06:06:16;;;;;;;0.20;0.05;;;24.80;48.90;;;;;;4974421;28;20034;-85
2021/06/14 06:08:42;;;;;;;1.23;0.25;;;24.80;49.40;;;;;;4976246;28;20023;-85
2021/06/14 06:11:08;;;;;;;0.95;0.30;;;24.90;48.60;;;;;;4976085;28;20073;-85
2021/06/14 06:13:34;;;;;;;0.00;0.00;;;25.00;48.40;;;;;;4991437;28;20031;-85
2021/06/14 06:16:01;;;;;;;0.43;0.20;;;25.10;48.30;;;;;;4974446;28;20039;-85
2021/06/14 06:18:27;;;;;;;0.20;0.10;;;25.20;48.20;;;;;;4974992;28;20042;-85
2021/06/14 06:20:53;;;;;;;0.10;0.10;;;25.30;48.10;;;;;;4974793;28;20376;-84
2021/06/14 06:23:19;;;;;;;0.13;0.00;;;25.40;48.00;;;;;;4959108;28;20031;-85
2021/06/14 06:25:45;;;;;;;0.20;0.10;;;25.50;47.80;;;;;;4976639;28;20035;-84
2021/06/14 06:28:11;;;;;;;0.10;0.03;;;25.60;47.80;;;;;;4975703;28;20029;-84
2021/06/14 06:30:38;;;;;;;0.00;0.00;;;25.70;47.50;;;;;;4978718;28;20035;-85
2021/06/14 06:33:05;;;;;;;1.23;0.10;;;25.80;47.40;;;;;;4989301;28;20037;-85
2021/06/14 06:35:31;;;;;;;0.10;0.00;;;25.90;47.20;;;;;;4958931;28;20039;-85
2021/06/14 06:37:57;;;;;;;0.00;0.00;;;26.10;47.10;;;;;;4977210;28;20476;-85
2021/06/14 06:40:23;;;;;;;0.68;0.30;;;26.10;46.90;;;;;;5011619;28;20039;-84
2021/06/14 06:42:51;;;;;;;0.00;0.00;;;26.20;46.90;;;;;;5011051;28;20469;-85
2021/06/14 06:45:17;;;;;;;0.22;0.03;;;26.20;46.70;;;;;;5010042;28;20039;-85
2021/06/14 06:47:43;;;;;;;1.25;0.05;;;26.30;46.60;;;;;;4973436;28;20039;-83
2021/06/14 06:50:10;;;;;;;1.08;0.30;;;26.30;46.50;;;;;;4974292;28;20038;-84
2021/06/14 06:52:36;;;;;;;0.20;0.10;;;26.40;46.40;;;;;;4990790;28;20035;-85
2021/06/14 06:55:07;;;;;;;0.65;0.15;;;26.50;46.30;;;;;;4990337;28;20408;-86
2021/06/14 06:57:33;;;;;;;0.25;0.00;;;26.70;46.20;;;;;;4973893;28;20045;-84
2021/06/14 06:59:59;;;;;;;0.10;0.00;;;26.70;46.00;;;;;;4975208;28;20031;-85
2021/06/14 07:02:25;;;;;;;0.00;0.00;;;26.80;45.80;;;;;;4988623;28;20035;-85
2021/06/14 07:04:51;;;;;;;0.17;0.00;;;26.80;45.80;;;;;;4978930;28;20031;-85
2021/06/14 07:07:17;;;;;;;0.00;0.00;;;26.90;45.80;;;;;;5011025;28;20380;-85
2021/06/14 07:09:43;;;;;;;0.10;0.00;;;26.90;45.80;;;;;;4979315;28;20035;-85
2021/06/14 07:12:10;;;;;;;0.10;0.00;;;27.10;45.60;;;;;;4978933;28;20065;-84
2021/06/14 07:14:36;;;;;;;0.00;0.00;;;27.20;45.50;;;;;;4976287;28;20384;-86
2021/06/14 07:17:02;;;;;;;0.20;0.00;;;27.20;45.20;;;;;;4974876;28;20054;-85
2021/06/14 07:19:28;;;;;;;0.08;0.00;;;27.30;45.20;;;;;;4975166;28;20038;-86
2021/06/14 07:21:55;;;;;;;0.88;0.20;;;27.30;45.10;;;;;;4973738;28;20477;-86
2021/06/14 07:24:21;;;;;;;0.20;0.00;;;27.30;45.10;;;;;;4973547;28;20026;-86
2021/06/14 07:26:47;;;;;;;0.80;0.10;;;27.50;45.00;;;;;;4973431;28;20030;-85
2021/06/14 07:29:13;;;;;;;0.13;0.00;;;27.60;44.90;;;;;;4973710;28;20038;-85
2021/06/14 07:31:39;;;;;;;0.00;0.00;;;27.70;44.70;;;;;;4973653;28;20043;-86
2021/06/14 07:34:08;;;;;;;0.47;0.10;;;27.70;44.60;;;;;;4989670;28;20027;-86
2021/06/14 07:36:34;;;;;;;0.08;0.00;;;27.70;44.50;;;;;;4974639;28;20038;-86
2021/06/14 07:39:00;;;;;;;3.53;0.10;;;27.60;44.40;;;;;;4973499;28;20552;-86
2021/06/14 07:41:26;;;;;;;0.35;0.10;;;27.70;44.40;;;;;;4974238;28;20038;-86
2021/06/14 07:43:52;;;;;;;0.32;0.17;;;27.70;44.40;;;;;;4973845;28;20042;-86
2021/06/14 07:46:19;;;;;;;0.15;0.00;;;27.80;44.30;;;;;;4989105;28;20050;-86
2021/06/14 07:48:45;;;;;;;0.25;0.00;;;28.00;44.20;;;;;;4974333;28;20023;-85
2021/06/14 07:51:12;;;;;;;0.20;0.10;;;28.20;44.00;;;;;;4974166;28;20087;-86
2021/06/14 07:53:39;;;;;;;0.50;0.20;;;28.40;43.80;;;;;;4973331;28;20472;-86
2021/06/14 07:56:06;;;;;;;0.08;0.00;;;28.50;43.50;;;;;;4972780;28;20045;-84
2021/06/14 07:58:33;;;;;;;1.88;0.10;;;28.60;43.40;;;;;;4989613;28;20035;-86
2021/06/14 08:01:00;;;;;;;0.20;0.00;;;28.70;43.30;;;;;;4981136;28;20041;-85
2021/06/14 08:03:28;;;;;;;0.10;0.10;;;28.80;43.20;;;;;;4983607;28;20023;-86
2021/06/14 08:05:54;;;;;;;0.15;0.00;;;28.90;43.10;;;;;;4978313;28;20403;-86
2021/06/14 08:08:21;;;;;;;1.27;0.10;;;29.00;43.00;;;;;;4974170;28;20027;-84
2021/06/14 08:10:47;;;;;;;2.15;0.25;;;29.10;42.90;;;;;;4977264;28;20039;-85
2021/06/14 08:13:13;;;;;;;0.85;0.17;;;29.20;42.80;;;;;;4978059;28;20042;-87
2021/06/14 08:15:40;;;;;;;0.20;0.15;;;29.20;42.70;;;;;;4977853;28;20416;-86
2021/06/14 08:20:39;;;;;;;0.17;0.00;;;29.30;42.50;;;;;;4978138;28;20050;-86
2021/06/14 08:25:50;;;;;;;0.13;0.10;;;29.60;42.20;;;;;;4983341;28;20404;-84
2021/06/14 08:28:16;;;;;;;0.30;0.10;;;29.60;42.10;;;;;;4988708;28;20038;-86
2021/06/14 08:30:42;;;;;;;0.28;0.10;;;29.70;42.00;;;;;;4987331;28;20042;-86
2021/06/14 08:33:08;;;;;;;0.50;0.20;;;29.90;42.00;;;;;;4988525;28;20039;-85
2021/06/14 08:35:34;;;;;;;0.52;0.10;;;30.00;41.70;;;;;;4972625;28;20404;-85
2021/06/14 08:38:01;;;;;;;0.28;0.00;;;30.20;41.60;;;;;;4972715;28;20035;-82
2021/06/14 08:40:29;;;;;;;0.20;0.00;;;30.20;41.50;;;;;;4988421;28;20038;-86
2021/06/14 08:42:55;;;;;;;1.65;0.10;;;30.20;41.40;;;;;;4972446;28;20034;-85
2021/06/14 08:45:21;;;;;;;0.20;0.15;;;30.40;41.30;;;;;;4975213;28;20420;-85
2021/06/14 08:47:48;;;;;;;0.10;0.00;;;30.50;41.20;;;;;;4987493;28;20031;-84
2021/06/14 08:50:17;;;;;;;0.08;0.00;;;30.50;41.10;;;;;;4956401;28;20041;-87
2021/06/14 08:52:43;;;;;;;0.20;0.10;;;30.60;40.80;;;;;;4992547;28;20038;-87
2021/06/14 08:55:11;;;;;;;0.00;0.00;;;30.70;40.70;;;;;;4992724;28;20042;-86
2021/06/14 08:57:37;;;;;;;0.10;0.00;;;30.60;40.60;;;;;;5008795;28;20385;-87
2021/06/14 09:00:06;;;;;;;1.05;0.30;;;30.60;40.50;;;;;;4975807;28;20045;-87
2021/06/14 09:02:32;;;;;;;0.10;0.00;;;30.60;40.50;;;;;;4972077;28;20042;-87
2021/06/14 09:04:58;;;;;;;0.00;0.00;;;30.70;40.50;;;;;;4972320;28;20027;-87
2021/06/14 09:07:24;;;;;;;0.65;0.22;;;30.70;40.30;;;;;;4988331;28;20031;-86
2021/06/14 09:09:50;;;;;;;0.10;0.00;;;30.90;40.20;;;;;;4988057;28;20035;-87
2021/06/14 09:12:16;;;;;;;0.32;0.10;;;30.90;40.00;;;;;;4987848;28;20035;-86
2021/06/14 09:14:42;;;;;;;0.90;0.10;;;31.00;39.90;;;;;;4971988;28;20023;-87
2021/06/14 09:17:14;;;;;;;0.93;0.10;;;30.90;39.70;;;;;;4987062;28;20047;-87
2021/06/14 09:19:51;;;;;;;0.10;0.03;;;31.00;39.70;;;;;;4992861;28;20030;-87
2021/06/14 09:22:24;;;;;;;0.45;0.10;;;31.00;39.40;;;;;;4992254;28;20039;-86
2021/06/14 09:25:05;;;;;;;2.60;0.10;;;31.10;39.50;;;;;;4992580;28;20523;-87
2021/06/14 09:27:33;;;;;;;0.10;0.10;;;31.10;39.20;;;;;;4977432;28;20058;-87
2021/06/14 09:30:25;;;;;;;0.75;0.30;;;31.10;39.10;;;;;;4976056;28;20026;-87
2021/06/14 09:33:03;;;;;;;0.30;0.10;;;31.10;38.80;;;;;;4921056;29;20039;-86
2021/06/14 09:35:36;;;;;;;0.52;0.28;;;31.10;38.70;;;;;;4953771;28;20035;-87
2021/06/14 09:38:07;;;;;;;1.35;0.10;;;31.20;38.50;;;;;;4936646;29;20035;-86
2021/06/14 09:40:38;;;;;;;0.10;0.00;;;31.30;38.50;;;;;;4953346;28;20037;-86
2021/06/14 09:43:08;;;;;;;0.38;0.38;;;31.40;38.30;;;;;;4956393;28;20042;-85
2021/06/14 09:45:41;;;;;;;0.00;0.00;;;31.40;38.10;;;;;;4965351;28;20419;-87
2021/06/14 09:48:26;;;;;;;0.00;0.00;;;31.40;38.10;;;;;;4988780;28;20030;-87
2021/06/14 09:50:53;;;;;;;0.00;0.00;;;31.50;37.80;;;;;;4979472;28;20034;-82
2021/06/14 09:53:20;;;;;;;0.15;0.10;;;31.50;37.80;;;;;;4975460;28;20030;-87
2021/06/14 09:55:48;;;;;;;0.00;0.00;;;31.50;37.80;;;;;;5019910;28;20041;-86
2021/06/14 09:58:14;;;;;;;2.53;0.55;;;31.60;37.80;;;;;;4980691;28;20030;-87
2021/06/14 10:01:02;;;;;;;0.00;0.00;;;31.60;37.80;;;;;;4978737;28;20035;-87
2021/06/14 10:03:46;;;;;;;0.00;0.00;;;31.60;37.70;;;;;;4975338;28;20027;-87
2021/06/14 10:06:14;;;;;;;0.08;0.08;;;31.70;37.60;;;;;;4974812;28;20030;-87
2021/06/14 10:08:43;;;;;;;0.15;0.00;;;31.80;37.60;;;;;;4976252;28;20515;-87
2021/06/14 10:11:16;;;;;;;0.00;0.00;;;31.90;37.50;;;;;;4975061;28;20038;-87
2021/06/14 10:13:43;;;;;;;0.20;0.00;;;32.10;37.50;;;;;;4975524;28;20050;-87
2021/06/14 10:16:11;;;;;;;0.00;0.00;;;32.30;37.30;;;;;;4990379;28;20042;-87
2021/06/14 10:18:39;;;;;;;0.25;0.17;;;32.40;37.10;;;;;;4990870;28;20380;-87
2021/06/14 10:21:09;;;;;;;0.00;0.00;;;32.60;37.00;;;;;;4974353;28;20035;-86
2021/06/14 10:23:35;;;;;;;0.20;0.00;;;32.70;36.90;;;;;;4974810;28;20037;-87
2021/06/14 10:26:01;;;;;;;0.22;0.00;;;32.80;36.70;;;;;;4974891;28;20034;-80
2021/06/14 10:28:28;;;;;;;1.27;0.00;;;32.90;36.40;;;;;;4975330;28;20397;-87
2021/06/14 10:30:54;;;;;;;0.00;0.00;;;32.80;36.30;;;;;;4974197;28;20039;-87
2021/06/14 10:33:22;;;;;;;0.77;0.52;;;32.70;36.80;;;;;;4990640;28;20469;-87
2021/06/14 10:35:49;;;;;;;0.30;0.08;;;32.70;36.20;;;;;;4974382;28;20370;-87
2021/06/14 10:38:15;;;;;;;0.22;0.03;;;32.70;36.00;;;;;;4974527;28;20022;-87
2021/06/14 10:40:41;;;;;;;1.65;0.10;;;32.70;35.70;;;;;;4975114;28;20026;-87
2021/06/14 10:43:07;;;;;;;0.43;0.15;;;32.70;35.60;;;;;;5007096;28;20492;-88
2021/06/14 10:45:34;;;;;;;0.10;0.00;;;32.70;35.50;;;;;;4989837;28;20047;-86
2021/06/14 10:48:00;;;;;;;0.25;0.08;;;32.70;35.60;;;;;;4975505;28;20019;-87
2021/06/14 10:50:29;;;;;;;0.30;0.08;;;32.70;35.20;;;;;;4974091;28;20424;-87
2021/06/14 10:52:56;;;;;;;0.35;0.10;;;32.60;35.10;;;;;;4973477;28;20039;-87
2021/06/14 10:55:31;;;;;;;0.28;0.08;;;32.60;35.10;;;;;;4973532;28;20032;-86
2021/06/14 10:57:57;;;;;;;0.00;0.00;;;32.60;35.00;;;;;;4974333;28;20030;-86
2021/06/14 11:00:30;;;;;;;0.15;0.00;;;32.60;34.90;;;;;;4976623;28;20034;-86
2021/06/14 11:02:59;;;;;;;0.00;0.00;;;32.60;34.80;;;;;;4988730;28;20459;-85
2021/06/14 11:05:29;;;;;;;0.10;0.00;;;32.70;34.60;;;;;;4974649;28;20026;-86
2021/06/14 11:07:55;;;;;;;0.15;0.00;;;32.80;34.50;;;;;;4977190;28;20464;-87
2021/06/14 11:10:27;;;;;;;0.20;0.05;;;32.80;34.40;;;;;;4979742;28;20050;-87
2021/06/14 11:12:53;;;;;;;0.00;0.00;;;32.80;34.30;;;;;;4978291;28;20065;-83
2021/06/14 11:15:20;;;;;;;0.10;0.00;;;33.00;34.30;;;;;;4977534;28;20031;-87
2021/06/14 11:17:46;;;;;;;3.05;0.10;;;32.90;33.90;;;;;;4973674;28;20388;-87
2021/06/14 11:20:12;;;;;;;0.10;0.00;;;32.80;34.00;;;;;;4973749;28;22403;-87
2021/06/14 11:22:43;;;;;;;0.30;0.10;;;32.80;33.90;;;;;;4974116;28;20050;-87
2021/06/14 11:25:16;;;;;;;0.28;0.10;;;32.80;33.80;;;;;;4973828;28;20019;-86
2021/06/14 11:27:42;;;;;;;0.95;0.45;;;33.00;33.80;;;;;;4974817;28;20034;-87
2021/06/14 11:30:15;;;;;;;0.25;0.00;;;33.20;33.60;;;;;;4957822;28;20035;-86
2021/06/14 11:32:41;;;;;;;0.55;0.10;;;33.30;33.50;;;;;;4988581;28;20038;-88
2021/06/14 11:35:08;;;;;;;0.05;0.00;;;33.40;33.50;;;;;;4974791;28;20467;-87
2021/06/14 11:37:47;;;;;;;0.03;0.00;;;33.60;33.40;;;;;;4994652;28;20043;-87
2021/06/14 11:40:36;;;;;;;5.03;0.08;;;33.70;33.10;;;;;;5010168;28;20022;-87
2021/06/14 11:43:10;;;;;;;1.35;0.00;;;33.60;33.00;;;;;;4972579;28;20039;-87
2021/06/14 11:45:39;;;;;;;0.28;0.10;;;33.50;33.10;;;;;;4976845;28;20047;-84
2021/06/14 11:48:16;;;;;;;0.20;0.05;;;33.50;33.20;;;;;;4973141;28;20380;-86
2021/06/14 11:50:42;;;;;;;0.00;0.00;;;33.50;33.10;;;;;;4973282;28;20031;-87
2021/06/14 11:53:09;;;;;;;0.45;0.03;;;33.40;32.90;;;;;;4973233;28;20038;-86
2021/06/14 11:55:37;;;;;;;0.10;0.00;;;33.40;33.00;;;;;;4974932;28;20034;-86
2021/06/14 11:58:05;;;;;;;0.10;0.00;;;33.40;33.00;;;;;;4974312;28;20034;-87
2021/06/14 12:00:39;;;;;;;0.25;0.00;;;33.40;33.00;;;;;;4976389;28;20045;-85
2021/06/14 12:03:24;;;;;;;0.57;0.10;;;33.60;32.80;;;;;;4986279;28;20049;-86
2021/06/14 12:05:51;;;;;;;0.15;0.00;;;33.70;32.70;;;;;;4977166;28;20037;-85
2021/06/14 12:08:22;;;;;;;0.30;0.10;;;33.80;33.10;;;;;;4972960;28;20030;-87
2021/06/14 12:10:49;;;;;;;0.05;0.00;;;33.70;32.50;;;;;;5017434;28;20379;-86
2021/06/14 12:13:19;;;;;;;0.10;0.00;;;33.60;32.40;;;;;;4977155;28;20039;-87
2021/06/14 12:15:50;;;;;;;0.30;0.00;;;33.60;32.50;;;;;;4977625;28;20522;-85
2021/06/14 12:18:17;;;;;;;0.52;0.00;;;33.70;32.50;;;;;;4972629;28;20376;-87
2021/06/14 12:20:45;;;;;;;0.00;0.00;;;33.70;32.20;;;;;;4972804;28;20041;-87
2021/06/14 12:23:14;;;;;;;0.25;0.05;;;33.70;32.10;;;;;;4972602;28;20487;-87
2021/06/14 12:25:43;;;;;;;1.58;0.15;;;33.70;32.20;;;;;;4989006;28;20027;-86
2021/06/14 12:28:10;;;;;;;0.08;0.00;;;33.70;32.70;;;;;;4972520;28;20037;-87
2021/06/14 12:30:36;;;;;;;0.20;0.10;;;33.70;32.10;;;;;;4987794;28;20050;-87
2021/06/14 12:33:03;;;;;;;0.15;0.00;;;33.90;32.10;;;;;;4973501;28;20041;-87
2021/06/14 12:35:29;;;;;;;0.10;0.00;;;34.00;32.00;;;;;;4956334;28;20038;-86
2021/06/14 12:37:55;;;;;;;0.10;0.00;;;34.10;31.80;;;;;;4972615;28;20503;-87
2021/06/14 12:40:25;;;;;;;0.10;0.00;;;34.10;31.70;;;;;;4972808;28;20038;-87
2021/06/14 12:42:58;;;;;;;0.47;0.00;;;34.10;31.70;;;;;;4988779;28;20392;-87
2021/06/14 12:45:24;;;;;;;0.40;0.00;;;34.00;31.60;;;;;;4987789;28;20086;-87
2021/06/14 12:47:52;;;;;;;0.30;0.00;;;34.10;31.70;;;;;;4973463;28;20034;-87
2021/06/14 12:50:21;;;;;;;0.28;0.10;;;34.30;31.70;;;;;;4956832;28;20026;-87
2021/06/14 12:52:47;;;;;;;0.00;0.00;;;34.30;31.40;;;;;;5001283;28;20050;-87
2021/06/14 12:55:24;;;;;;;0.00;0.00;;;34.40;31.40;;;;;;4972137;28;20464;-87
2021/06/14 12:57:50;;;;;;;0.17;0.05;;;34.40;31.20;;;;;;4956680;28;20507;-87
2021/06/14 13:00:25;;;;;;;0.47;0.10;;;34.30;31.30;;;;;;4973087;28;20037;-87